createdAt,value
2019-04-04T00:04:39.383Z,3.13
2019-04-04T00:09:35.333Z,3.20
2019-04-04T00:14:31.035Z,3.30
2019-04-04T00:19:27.852Z,3.30
2019-04-04T00:24:24.586Z,3.47
2019-04-04T00:29:21.815Z,3.50
2019-04-04T00:34:17.490Z,3.43
2019-04-04T00:39:13.393Z,4.20
2019-04-04T00:44:09.074Z,3.60
2019-04-04T00:49:05.466Z,3.47
2019-04-04T00:54:01.499Z,3.70
2019-04-04T00:58:57.361Z,3.70
2019-04-04T01:03:53.035Z,3.23
2019-04-04T01:08:48.918Z,3.77
2019-04-04T01:13:44.826Z,3.70
2019-04-04T01:18:40.805Z,4.00
2019-04-04T01:23:36.534Z,4.00
2019-04-04T01:28:32.887Z,3.90
2019-04-04T01:33:28.579Z,4.10
2019-04-04T01:38:24.517Z,4.10
2019-04-04T01:43:20.188Z,4.70
2019-04-04T01:48:18.520Z,4.70
2019-04-04T01:53:13.641Z,5.30
2019-04-04T01:58:10.127Z,5.40
2019-04-04T02:03:06.395Z,5.50
2019-04-04T02:08:02.616Z,5.40
2019-04-04T02:12:58.309Z,5.33
2019-04-04T02:17:54.167Z,5.40
2019-04-04T02:22:49.833Z,6.07
2019-04-04T02:27:45.732Z,5.80
2019-04-04T02:32:42.075Z,5.97
2019-04-04T02:37:38.003Z,5.60
2019-04-04T02:42:34.036Z,6.03
2019-04-04T02:47:30.046Z,6.97
2019-04-04T02:52:25.968Z,6.10
2019-04-04T02:57:21.833Z,7.17
2019-04-04T03:02:17.503Z,7.97
2019-04-04T03:07:13.347Z,8.20
2019-04-04T03:12:09.142Z,8.80
2019-04-04T03:17:05.142Z,8.70
2019-04-04T03:22:00.831Z,8.83
2019-04-04T03:26:56.955Z,8.73
2019-04-04T03:31:53.199Z,10.00
2019-04-04T03:36:49.037Z,10.47
2019-04-04T03:41:44.862Z,10.90
2019-04-04T03:46:40.779Z,9.67
2019-04-04T03:51:38.081Z,10.30
2019-04-04T03:56:39.198Z,9.07
2019-04-04T04:01:32.011Z,10.33
2019-04-04T04:06:28.195Z,9.00
2019-04-04T04:11:24.124Z,9.50
2019-04-04T04:16:20.406Z,10.40
2019-04-04T04:21:16.091Z,9.90
2019-04-04T04:26:12.008Z,9.87
2019-04-04T04:31:07.693Z,10.47
2019-04-04T04:36:04.098Z,9.70
2019-04-04T04:40:59.875Z,9.60
2019-04-04T04:45:56.131Z,9.90
2019-04-04T04:50:51.846Z,10.03
2019-04-04T04:55:47.811Z,10.40
2019-04-04T05:00:46.943Z,10.93
2019-04-04T05:05:41.117Z,10.90
2019-04-04T05:10:36.787Z,10.73
2019-04-04T05:15:33.205Z,11.30
2019-04-04T05:20:29.852Z,11.77
2019-04-04T05:25:26.347Z,11.07
2019-04-04T05:30:22.145Z,11.00
2019-04-04T05:35:17.874Z,11.90
2019-04-04T05:40:14.273Z,11.37
2019-04-04T05:45:13.907Z,12.53
2019-04-04T05:50:11.121Z,12.27
2019-04-04T05:55:10.000Z,12.27
2019-04-04T06:00:05.506Z,13.47
2019-04-04T06:05:01.451Z,12.43
2019-04-04T06:09:57.139Z,13.80
2019-04-04T06:14:53.282Z,12.43
2019-04-04T06:19:49.223Z,12.37
2019-04-04T06:24:46.122Z,13.30
2019-04-04T06:29:41.877Z,13.10
2019-04-04T06:34:37.876Z,13.47
2019-04-04T06:39:33.582Z,13.63
2019-04-04T06:44:30.645Z,13.63
2019-04-04T06:49:28.862Z,13.10
2019-04-04T06:54:25.642Z,13.67
2019-04-04T06:59:22.089Z,13.93
2019-04-04T07:04:18.057Z,13.77
2019-04-04T07:09:13.744Z,13.60
2019-04-04T07:14:09.824Z,14.20
2019-04-04T07:19:07.922Z,14.10
2019-04-04T07:24:03.240Z,13.27
2019-04-04T07:28:58.923Z,13.50
2019-04-04T07:33:54.877Z,13.40
2019-04-04T07:38:50.755Z,13.07
2019-04-04T07:43:46.517Z,12.53
2019-04-04T07:48:42.710Z,12.60
2019-04-04T07:53:38.596Z,12.60
2019-04-04T07:58:34.379Z,12.97
2019-04-04T08:03:30.419Z,11.70
2019-04-04T08:08:26.193Z,11.83
2019-04-04T08:13:22.043Z,10.40
2019-04-04T08:18:17.832Z,10.83
2019-04-04T08:23:13.863Z,10.80
2019-04-04T08:28:09.654Z,10.60
2019-04-04T08:33:05.503Z,10.80
2019-04-04T08:38:01.202Z,11.30
2019-04-04T08:42:57.812Z,12.05
2019-04-04T08:52:49.784Z,9.18
2019-04-04T08:57:45.470Z,10.28
2019-04-04T09:02:41.422Z,9.73
2019-04-04T09:07:37.351Z,9.05
2019-04-04T09:17:29.005Z,9.23
2019-04-04T09:22:24.888Z,10.80
2019-04-04T09:27:21.034Z,11.35
2019-04-04T09:32:16.725Z,10.90
2019-04-04T09:37:12.651Z,13.22
2019-04-04T09:42:08.394Z,11.40
2019-04-04T09:47:05.574Z,10.48
2019-04-04T09:52:01.905Z,10.58
2019-04-04T09:56:58.585Z,10.78
2019-04-04T10:01:54.353Z,11.03
2019-04-04T10:06:50.234Z,10.10
2019-04-04T10:11:45.931Z,11.10
2019-04-04T10:16:41.861Z,11.97
2019-04-04T10:21:37.599Z,13.25
2019-04-04T10:26:33.877Z,12.40
2019-04-04T10:31:29.559Z,12.25
2019-04-04T10:36:25.451Z,11.73
2019-04-04T10:41:21.131Z,17.90
2019-04-04T10:46:17.514Z,14.13
2019-04-04T10:51:13.189Z,14.03
2019-04-04T10:56:09.111Z,13.72
2019-04-04T11:01:05.555Z,14.43
2019-04-04T11:06:01.458Z,13.85
2019-04-04T11:10:58.935Z,15.75
2019-04-04T11:15:55.187Z,13.90
2019-04-04T11:20:50.889Z,15.13
2019-04-04T11:25:46.782Z,13.53
2019-04-04T11:30:42.477Z,13.78
2019-04-04T11:35:42.267Z,13.60
2019-04-04T11:40:37.955Z,14.30
2019-04-04T11:45:33.836Z,13.88
2019-04-04T11:50:29.752Z,14.20
2019-04-04T11:55:25.599Z,14.33
2019-04-04T12:00:23.171Z,13.57
2019-04-04T12:05:20.539Z,14.13
2019-04-04T12:10:16.225Z,13.30
2019-04-04T12:15:12.261Z,15.25
2019-04-04T12:20:08.239Z,13.53
2019-04-04T12:25:06.062Z,14.20
2019-04-04T12:30:03.436Z,15.03
2019-04-04T12:34:59.328Z,14.30
2019-04-04T12:39:55.003Z,14.78
2019-04-04T12:44:50.874Z,15.10
2019-04-04T12:49:46.555Z,14.90
2019-04-04T12:59:38.230Z,15.37
2019-04-04T13:04:33.912Z,15.88
2019-04-04T13:09:30.373Z,15.70
2019-04-04T13:14:26.072Z,16.40
2019-04-04T13:19:22.163Z,16.05
2019-04-04T13:24:17.853Z,15.98
2019-04-04T13:29:13.755Z,15.68
2019-04-04T13:34:10.283Z,15.68
2019-04-04T13:39:08.173Z,15.72
2019-04-04T13:44:03.949Z,20.00
2019-04-04T13:49:00.169Z,16.17
2019-04-04T13:53:55.859Z,15.30
2019-04-04T13:58:51.737Z,14.53
2019-04-04T14:03:47.420Z,14.63
2019-04-04T14:08:45.710Z,14.58
2019-04-04T14:13:41.696Z,14.30
2019-04-04T14:18:39.778Z,15.10
2019-04-04T14:23:35.459Z,15.80
2019-04-04T14:28:31.324Z,13.70
2019-04-04T14:33:26.996Z,12.93
2019-04-04T14:38:22.941Z,12.87
2019-04-04T14:43:18.870Z,12.20
2019-04-04T14:48:14.875Z,11.10
2019-04-04T14:53:10.554Z,11.10
2019-04-04T14:58:06.445Z,11.97
2019-04-04T15:03:02.118Z,10.13
2019-04-04T15:08:00.844Z,13.17
2019-04-04T15:12:55.567Z,10.53
2019-04-04T15:17:53.057Z,10.07
2019-04-04T15:22:48.747Z,9.73
2019-04-04T15:27:44.786Z,8.90
2019-04-04T15:32:40.478Z,8.90
2019-04-04T15:37:36.407Z,8.67
2019-04-04T15:42:32.091Z,8.93
2019-04-04T15:47:28.280Z,8.37
2019-04-04T15:52:23.950Z,9.23
2019-04-04T15:57:20.050Z,9.23
2019-04-04T16:02:16.018Z,8.40
2019-04-04T16:07:12.504Z,8.80
2019-04-04T16:12:08.194Z,10.50
2019-04-04T16:17:04.043Z,10.37
2019-04-04T16:22:00.639Z,10.53
2019-04-04T16:26:56.320Z,11.60
2019-04-04T16:31:52.195Z,11.63
2019-04-04T16:36:47.892Z,11.97
2019-04-04T16:41:43.965Z,11.70
2019-04-04T16:46:39.669Z,11.53
2019-04-04T16:51:35.583Z,11.47
2019-04-04T16:56:31.249Z,12.03
2019-04-04T17:01:27.033Z,12.00
2019-04-04T17:06:22.703Z,11.47
2019-04-04T17:11:18.834Z,9.03
2019-04-04T17:16:14.852Z,8.67
2019-04-04T17:21:10.849Z,8.87
2019-04-04T17:26:07.412Z,7.83
2019-04-04T17:31:03.565Z,6.80
2019-04-04T17:35:59.326Z,6.03
2019-04-04T17:40:55.307Z,6.03
2019-04-04T17:45:51.642Z,5.37
2019-04-04T17:50:47.407Z,5.17
2019-04-04T17:55:43.183Z,4.60
2019-04-04T18:00:39.300Z,4.13
2019-04-04T18:05:35.084Z,4.60
2019-04-04T18:10:30.973Z,4.30
2019-04-04T18:15:26.669Z,4.50
2019-04-04T18:20:22.991Z,4.43
2019-04-04T18:25:19.161Z,4.50
2019-04-04T18:30:16.040Z,5.43
2019-04-04T18:35:11.732Z,5.67
2019-04-04T18:40:07.854Z,4.83
2019-04-04T18:45:04.648Z,4.10
2019-04-04T18:50:00.526Z,5.03
2019-04-04T18:54:56.216Z,4.50
2019-04-04T18:59:52.251Z,4.47
2019-04-04T19:04:47.944Z,5.07
2019-04-04T19:09:43.922Z,5.03
2019-04-04T19:14:39.629Z,6.00
2019-04-04T19:19:35.456Z,5.53
2019-04-04T19:24:31.335Z,6.63
2019-04-04T19:29:27.737Z,8.07
2019-04-04T19:34:23.429Z,6.80
2019-04-04T19:39:19.443Z,7.60
2019-04-04T19:44:15.137Z,7.73
2019-04-04T19:49:11.358Z,8.20
2019-04-04T19:54:07.051Z,8.07
2019-04-04T19:59:02.910Z,7.80
2019-04-04T20:03:58.591Z,8.67
2019-04-04T20:08:54.709Z,8.13
2019-04-04T20:13:50.387Z,7.60
2019-04-04T20:18:46.325Z,8.40
2019-04-04T20:23:42.014Z,8.43
2019-04-04T20:28:40.113Z,8.90
2019-04-04T20:33:36.306Z,9.13
2019-04-04T20:38:32.547Z,9.03
2019-04-04T20:43:28.254Z,8.60
2019-04-04T20:48:24.246Z,9.00
2019-04-04T20:53:22.190Z,8.70
2019-04-04T20:58:17.997Z,8.87
2019-04-04T21:03:13.906Z,8.67
2019-04-04T21:08:09.770Z,9.07
2019-04-04T21:13:05.443Z,9.23
2019-04-04T21:18:01.598Z,8.87
2019-04-04T21:22:57.517Z,9.43
2019-04-04T21:27:53.835Z,9.53
2019-04-04T21:32:49.753Z,9.80
2019-04-04T21:37:45.651Z,10.63
2019-04-04T21:42:41.313Z,8.77
2019-04-04T21:47:37.153Z,9.40
2019-04-04T21:52:32.826Z,9.00
2019-04-04T21:57:28.695Z,8.63
2019-04-04T22:02:52.265Z,9.73
2019-04-04T22:07:48.282Z,8.80
2019-04-04T22:12:44.345Z,9.33
2019-04-04T22:17:40.125Z,8.40
2019-04-04T22:22:35.970Z,8.73
2019-04-04T22:27:31.638Z,8.67
2019-04-04T22:32:28.857Z,8.53
2019-04-04T22:37:24.545Z,9.40
2019-04-04T22:42:20.421Z,8.67
2019-04-04T22:47:16.125Z,8.63
2019-04-04T22:57:07.481Z,8.67
2019-04-04T23:02:03.269Z,8.47
2019-04-04T23:06:59.154Z,8.27
2019-04-04T23:11:54.843Z,9.50
2019-04-04T23:16:51.047Z,8.93
2019-04-04T23:21:46.841Z,10.03
2019-04-04T23:26:42.694Z,9.10
2019-04-04T23:31:38.563Z,9.97
2019-04-04T23:36:35.514Z,10.97
2019-04-04T23:41:31.445Z,11.10
2019-04-04T23:46:27.699Z,11.57
2019-04-04T23:51:23.385Z,11.60
2019-04-04T23:56:19.227Z,11.30
